sensor_id;sensor_type;location;lat;lon;timestamp;P1;P2;P0
70197;PMS5003;57582;-34.876;138.628;2023-07-20T00:01:47;3.47;1.53;0.13
70197;PMS5003;57582;-34.876;138.628;2023-07-20T00:04:46;2.53;1.63;0.63
70197;PMS5003;57582;-34.876;138.628;2023-07-20T00:07:46;3.57;2.57;0.70
70197;PMS5003;57582;-34.876;138.628;2023-07-20T00:10:46;2.27;1.77;0.30
70197;PMS5003;57582;-34.876;138.628;2023-07-20T00:13:46;4.90;3.20;0.80
70197;PMS5003;57582;-34.876;138.628;2023-07-20T00:16:47;2.77;1.93;0.40
70197;PMS5003;57582;-34.876;138.628;2023-07-20T00:19:46;2.50;2.50;0.63
70197;PMS5003;57582;-34.876;138.628;2023-07-20T00:22:46;4.77;1.90;0.50
70197;PMS5003;57582;-34.876;138.628;2023-07-20T00:25:47;2.60;1.13;0.33
70197;PMS5003;57582;-34.876;138.628;2023-07-20T00:28:46;3.30;1.97;0.80
70197;PMS5003;57582;-34.876;138.628;2023-07-20T00:31:46;3.27;2.93;0.90
70197;PMS5003;57582;-34.876;138.628;2023-07-20T00:34:46;1.83;1.10;0.00
70197;PMS5003;57582;-34.876;138.628;2023-07-20T00:37:47;5.60;1.00;0.10
70197;PMS5003;57582;-34.876;138.628;2023-07-20T00:40:46;1.43;1.30;0.67
70197;PMS5003;57582;-34.876;138.628;2023-07-20T00:43:46;3.03;1.60;0.73
70197;PMS5003;57582;-34.876;138.628;2023-07-20T00:46:46;2.67;1.50;0.57
70197;PMS5003;57582;-34.876;138.628;2023-07-20T00:49:46;3.60;2.03;0.70
70197;PMS5003;57582;-34.876;138.628;2023-07-20T00:52:46;2.50;1.70;0.80
70197;PMS5003;57582;-34.876;138.628;2023-07-20T00:55:46;2.57;1.47;0.17
70197;PMS5003;57582;-34.876;138.628;2023-07-20T00:58:46;5.93;1.07;0.00
70197;PMS5003;57582;-34.876;138.628;2023-07-20T01:01:47;3.80;1.10;0.40
70197;PMS5003;57582;-34.876;138.628;2023-07-20T01:04:46;1.87;1.67;0.63
70197;PMS5003;57582;-34.876;138.628;2023-07-20T01:07:53;1.40;1.00;0.00
70197;PMS5003;57582;-34.876;138.628;2023-07-20T01:10:53;1.60;0.67;0.03
70197;PMS5003;57582;-34.876;138.628;2023-07-20T01:13:46;2.40;0.97;0.30
70197;PMS5003;57582;-34.876;138.628;2023-07-20T01:16:46;3.73;1.57;0.27
70197;PMS5003;57582;-34.876;138.628;2023-07-20T01:19:46;7.00;3.90;1.70
70197;PMS5003;57582;-34.876;138.628;2023-07-20T01:23:22;9.30;4.00;2.20
70197;PMS5003;57582;-34.876;138.628;2023-07-20T01:31:48;3.93;2.23;0.90
70197;PMS5003;57582;-34.876;138.628;2023-07-20T01:34:47;3.10;3.10;0.83
70197;PMS5003;57582;-34.876;138.628;2023-07-20T01:37:47;3.53;2.47;1.00
70197;PMS5003;57582;-34.876;138.628;2023-07-20T01:40:46;5.30;2.90;0.57
70197;PMS5003;57582;-34.876;138.628;2023-07-20T01:43:46;3.03;0.87;0.70
70197;PMS5003;57582;-34.876;138.628;2023-07-20T01:46:46;3.07;0.97;0.60
70197;PMS5003;57582;-34.876;138.628;2023-07-20T01:49:47;5.20;1.87;0.53
70197;PMS5003;57582;-34.876;138.628;2023-07-20T01:52:46;2.43;1.73;0.77
70197;PMS5003;57582;-34.876;138.628;2023-07-20T01:55:46;1.03;1.03;0.07
70197;PMS5003;57582;-34.876;138.628;2023-07-20T01:58:47;2.33;1.60;0.50
70197;PMS5003;57582;-34.876;138.628;2023-07-20T02:01:47;4.30;3.27;1.50
70197;PMS5003;57582;-34.876;138.628;2023-07-20T02:04:46;1.87;1.43;0.40
70197;PMS5003;57582;-34.876;138.628;2023-07-20T02:07:46;1.20;0.20;0.00
70197;PMS5003;57582;-34.876;138.628;2023-07-20T02:10:47;1.40;0.97;0.00
70197;PMS5003;57582;-34.876;138.628;2023-07-20T02:13:47;0.90;0.23;0.00
70197;PMS5003;57582;-34.876;138.628;2023-07-20T02:16:46;0.87;0.53;0.00
70197;PMS5003;57582;-34.876;138.628;2023-07-20T02:19:46;9.07;7.37;6.97
70197;PMS5003;57582;-34.876;138.628;2023-07-20T02:22:47;7.03;6.63;5.40
70197;PMS5003;57582;-34.876;138.628;2023-07-20T02:25:47;2.13;1.13;0.43
70197;PMS5003;57582;-34.876;138.628;2023-07-20T02:28:46;3.87;1.50;0.63
70197;PMS5003;57582;-34.876;138.628;2023-07-20T02:31:46;2.53;0.33;0.00
70197;PMS5003;57582;-34.876;138.628;2023-07-20T02:34:46;2.10;1.13;0.50
70197;PMS5003;57582;-34.876;138.628;2023-07-20T02:37:47;2.63;1.00;0.00
70197;PMS5003;57582;-34.876;138.628;2023-07-20T02:40:46;2.07;1.47;0.40
70197;PMS5003;57582;-34.876;138.628;2023-07-20T02:43:46;1.53;1.13;0.00
70197;PMS5003;57582;-34.876;138.628;2023-07-20T02:46:46;3.77;2.00;0.30
70197;PMS5003;57582;-34.876;138.628;2023-07-20T02:49:47;3.07;2.07;0.50
70197;PMS5003;57582;-34.876;138.628;2023-07-20T02:52:46;2.23;1.63;0.40
70197;PMS5003;57582;-34.876;138.628;2023-07-20T02:55:46;3.57;1.07;0.10
70197;PMS5003;57582;-34.876;138.628;2023-07-20T02:58:46;1.60;1.60;0.00
70197;PMS5003;57582;-34.876;138.628;2023-07-20T03:01:47;2.40;1.30;0.13
70197;PMS5003;57582;-34.876;138.628;2023-07-20T03:04:46;5.63;3.17;0.67
70197;PMS5003;57582;-34.876;138.628;2023-07-20T03:07:46;1.70;1.70;0.00
70197;PMS5003;57582;-34.876;138.628;2023-07-20T03:10:46;3.40;1.40;0.00
70197;PMS5003;57582;-34.876;138.628;2023-07-20T03:13:47;1.67;1.07;0.00
70197;PMS5003;57582;-34.876;138.628;2023-07-20T03:16:46;1.80;1.13;0.10
70197;PMS5003;57582;-34.876;138.628;2023-07-20T03:19:46;4.93;2.17;0.33
70197;PMS5003;57582;-34.876;138.628;2023-07-20T03:22:46;2.23;1.30;0.00
70197;PMS5003;57582;-34.876;138.628;2023-07-20T03:25:47;1.17;0.80;0.00
70197;PMS5003;57582;-34.876;138.628;2023-07-20T03:28:47;2.37;1.60;0.00
70197;PMS5003;57582;-34.876;138.628;2023-07-20T03:31:46;0.60;0.37;0.00
70197;PMS5003;57582;-34.876;138.628;2023-07-20T03:34:47;3.93;1.47;0.00
70197;PMS5003;57582;-34.876;138.628;2023-07-20T03:37:47;2.80;1.57;0.00
70197;PMS5003;57582;-34.876;138.628;2023-07-20T03:40:55;2.10;1.73;0.43
70197;PMS5003;57582;-34.876;138.628;2023-07-20T03:43:46;1.80;1.80;0.50
70197;PMS5003;57582;-34.876;138.628;2023-07-20T03:46:47;1.67;1.33;0.33
70197;PMS5003;57582;-34.876;138.628;2023-07-20T03:49:47;4.57;2.30;1.13
70197;PMS5003;57582;-34.876;138.628;2023-07-20T03:52:46;5.43;2.17;1.10
70197;PMS5003;57582;-34.876;138.628;2023-07-20T03:55:49;3.07;1.93;0.90
70197;PMS5003;57582;-34.876;138.628;2023-07-20T03:58:46;3.50;2.83;1.40
70197;PMS5003;57582;-34.876;138.628;2023-07-20T04:01:47;3.53;2.63;1.40
70197;PMS5003;57582;-34.876;138.628;2023-07-20T04:04:46;4.00;2.93;0.87
70197;PMS5003;57582;-34.876;138.628;2023-07-20T04:07:46;4.17;1.60;0.60
70197;PMS5003;57582;-34.876;138.628;2023-07-20T04:10:46;2.33;1.73;1.20
70197;PMS5003;57582;-34.876;138.628;2023-07-20T04:13:47;3.93;3.20;1.03
70197;PMS5003;57582;-34.876;138.628;2023-07-20T04:16:47;3.50;1.73;0.53
70197;PMS5003;57582;-34.876;138.628;2023-07-20T04:19:46;2.43;1.70;0.40
70197;PMS5003;57582;-34.876;138.628;2023-07-20T04:22:47;1.60;1.20;0.30
70197;PMS5003;57582;-34.876;138.628;2023-07-20T04:25:47;1.60;0.47;0.00
70197;PMS5003;57582;-34.876;138.628;2023-07-20T04:28:46;1.63;0.47;0.00
70197;PMS5003;57582;-34.876;138.628;2023-07-20T04:31:46;1.80;0.73;0.30
70197;PMS5003;57582;-34.876;138.628;2023-07-20T04:34:46;1.20;0.80;0.00
70197;PMS5003;57582;-34.876;138.628;2023-07-20T04:37:47;1.97;1.53;0.50
70197;PMS5003;57582;-34.876;138.628;2023-07-20T04:40:49;5.17;3.10;0.40
70197;PMS5003;57582;-34.876;138.628;2023-07-20T04:43:47;3.07;1.50;0.50
70197;PMS5003;57582;-34.876;138.628;2023-07-20T04:46:47;2.90;1.33;0.00
70197;PMS5003;57582;-34.876;138.628;2023-07-20T04:49:47;6.97;3.90;1.10
70197;PMS5003;57582;-34.876;138.628;2023-07-20T04:52:46;4.83;2.03;0.00
70197;PMS5003;57582;-34.876;138.628;2023-07-20T04:55:48;3.63;1.37;0.50
70197;PMS5003;57582;-34.876;138.628;2023-07-20T04:58:47;5.20;3.13;0.80
70197;PMS5003;57582;-34.876;138.628;2023-07-20T05:01:47;2.67;1.73;0.23
70197;PMS5003;57582;-34.876;138.628;2023-07-20T05:04:46;3.83;2.00;0.60
70197;PMS5003;57582;-34.876;138.628;2023-07-20T05:07:47;7.97;2.33;0.30
70197;PMS5003;57582;-34.876;138.628;2023-07-20T05:10:47;3.83;3.03;0.63
70197;PMS5003;57582;-34.876;138.628;2023-07-20T05:13:47;3.73;2.67;1.30
70197;PMS5003;57582;-34.876;138.628;2023-07-20T05:16:46;4.07;2.90;1.03
70197;PMS5003;57582;-34.876;138.628;2023-07-20T05:19:46;2.93;1.97;0.00
70197;PMS5003;57582;-34.876;138.628;2023-07-20T05:22:47;2.63;2.30;0.90
70197;PMS5003;57582;-34.876;138.628;2023-07-20T05:25:55;3.80;3.17;2.03
70197;PMS5003;57582;-34.876;138.628;2023-07-20T05:28:47;4.63;3.00;0.40
70197;PMS5003;57582;-34.876;138.628;2023-07-20T05:31:47;4.27;3.50;1.70
70197;PMS5003;57582;-34.876;138.628;2023-07-20T05:34:47;3.07;1.87;0.20
70197;PMS5003;57582;-34.876;138.628;2023-07-20T05:37:47;3.97;3.00;0.47
70197;PMS5003;57582;-34.876;138.628;2023-07-20T05:40:46;5.63;3.30;1.80
70197;PMS5003;57582;-34.876;138.628;2023-07-20T05:43:46;4.23;3.10;1.50
70197;PMS5003;57582;-34.876;138.628;2023-07-20T05:46:47;6.50;5.67;2.37
70197;PMS5003;57582;-34.876;138.628;2023-07-20T05:49:47;6.60;4.43;2.73
70197;PMS5003;57582;-34.876;138.628;2023-07-20T05:52:46;3.30;2.30;0.70
70197;PMS5003;57582;-34.876;138.628;2023-07-20T05:55:53;2.30;1.60;0.47
70197;PMS5003;57582;-34.876;138.628;2023-07-20T05:58:47;3.97;2.10;0.00
70197;PMS5003;57582;-34.876;138.628;2023-07-20T06:01:47;4.47;1.67;0.23
70197;PMS5003;57582;-34.876;138.628;2023-07-20T06:04:47;4.40;3.40;0.67
70197;PMS5003;57582;-34.876;138.628;2023-07-20T06:07:47;5.90;2.23;0.20
70197;PMS5003;57582;-34.876;138.628;2023-07-20T06:10:50;4.00;1.87;0.03
70197;PMS5003;57582;-34.876;138.628;2023-07-20T06:13:47;6.00;3.10;0.57
70197;PMS5003;57582;-34.876;138.628;2023-07-20T06:16:47;2.73;1.53;0.23
70197;PMS5003;57582;-34.876;138.628;2023-07-20T06:19:46;4.50;1.93;0.03
70197;PMS5003;57582;-34.876;138.628;2023-07-20T06:22:47;3.87;1.43;0.10
70197;PMS5003;57582;-34.876;138.628;2023-07-20T06:25:49;2.40;1.23;0.03
70197;PMS5003;57582;-34.876;138.628;2023-07-20T06:28:46;7.20;4.13;0.53
70197;PMS5003;57582;-34.876;138.628;2023-07-20T06:31:46;4.37;2.47;0.90
70197;PMS5003;57582;-34.876;138.628;2023-07-20T06:34:47;4.83;2.83;0.50
70197;PMS5003;57582;-34.876;138.628;2023-07-20T06:37:47;4.10;3.00;0.70
70197;PMS5003;57582;-34.876;138.628;2023-07-20T06:40:47;4.13;2.33;0.43
70197;PMS5003;57582;-34.876;138.628;2023-07-20T06:43:47;4.77;1.87;0.00
70197;PMS5003;57582;-34.876;138.628;2023-07-20T06:46:47;3.07;1.73;0.27
70197;PMS5003;57582;-34.876;138.628;2023-07-20T06:49:47;4.40;2.10;0.00
70197;PMS5003;57582;-34.876;138.628;2023-07-20T06:52:46;5.30;2.30;0.80
70197;PMS5003;57582;-34.876;138.628;2023-07-20T06:55:47;4.63;3.33;1.27
70197;PMS5003;57582;-34.876;138.628;2023-07-20T06:58:47;5.23;3.87;0.50
70197;PMS5003;57582;-34.876;138.628;2023-07-20T07:01:47;3.30;2.60;0.30
70197;PMS5003;57582;-34.876;138.628;2023-07-20T07:04:47;3.90;2.23;0.00
70197;PMS5003;57582;-34.876;138.628;2023-07-20T07:07:46;3.30;2.90;0.50
70197;PMS5003;57582;-34.876;138.628;2023-07-20T07:10:47;6.13;2.47;0.07
70197;PMS5003;57582;-34.876;138.628;2023-07-20T07:13:47;5.63;3.33;0.23
70197;PMS5003;57582;-34.876;138.628;2023-07-20T07:16:47;5.77;2.90;0.73
70197;PMS5003;57582;-34.876;138.628;2023-07-20T07:19:46;4.97;2.80;0.97
70197;PMS5003;57582;-34.876;138.628;2023-07-20T07:22:47;4.93;4.17;0.43
70197;PMS5003;57582;-34.876;138.628;2023-07-20T07:25:47;4.37;2.20;0.57
70197;PMS5003;57582;-34.876;138.628;2023-07-20T07:28:47;2.80;2.10;0.80
70197;PMS5003;57582;-34.876;138.628;2023-07-20T07:31:47;5.07;2.67;0.83
70197;PMS5003;57582;-34.876;138.628;2023-07-20T07:34:47;2.13;1.27;0.10
70197;PMS5003;57582;-34.876;138.628;2023-07-20T07:37:47;5.17;3.17;0.60
70197;PMS5003;57582;-34.876;138.628;2023-07-20T07:40:47;4.87;1.77;0.20
70197;PMS5003;57582;-34.876;138.628;2023-07-20T07:43:47;4.10;2.20;0.50
70197;PMS5003;57582;-34.876;138.628;2023-07-20T07:46:47;5.70;2.73;0.43
70197;PMS5003;57582;-34.876;138.628;2023-07-20T07:49:47;2.97;1.00;0.00
70197;PMS5003;57582;-34.876;138.628;2023-07-20T07:52:47;5.23;3.23;1.00
70197;PMS5003;57582;-34.876;138.628;2023-07-20T07:55:48;10.07;3.57;1.47
70197;PMS5003;57582;-34.876;138.628;2023-07-20T07:58:47;6.33;3.17;0.90
70197;PMS5003;57582;-34.876;138.628;2023-07-20T08:01:47;4.97;3.03;1.40
70197;PMS5003;57582;-34.876;138.628;2023-07-20T08:04:47;3.37;2.97;0.80
70197;PMS5003;57582;-34.876;138.628;2023-07-20T08:07:47;4.83;2.93;0.93
70197;PMS5003;57582;-34.876;138.628;2023-07-20T08:10:47;3.50;2.47;0.50
70197;PMS5003;57582;-34.876;138.628;2023-07-20T08:13:47;4.30;3.30;0.80
70197;PMS5003;57582;-34.876;138.628;2023-07-20T08:16:47;5.37;3.20;0.60
70197;PMS5003;57582;-34.876;138.628;2023-07-20T08:19:47;4.47;1.67;0.90
70197;PMS5003;57582;-34.876;138.628;2023-07-20T08:22:47;7.93;2.03;0.50
70197;PMS5003;57582;-34.876;138.628;2023-07-20T08:25:47;5.90;2.77;1.07
70197;PMS5003;57582;-34.876;138.628;2023-07-20T08:28:47;3.37;3.27;0.97
70197;PMS5003;57582;-34.876;138.628;2023-07-20T08:31:47;5.77;2.33;0.63
70197;PMS5003;57582;-34.876;138.628;2023-07-20T08:34:47;4.80;3.57;1.00
70197;PMS5003;57582;-34.876;138.628;2023-07-20T08:37:47;6.77;3.17;1.20
70197;PMS5003;57582;-34.876;138.628;2023-07-20T08:40:47;6.87;2.17;0.70
70197;PMS5003;57582;-34.876;138.628;2023-07-20T08:43:47;4.00;3.10;1.23
70197;PMS5003;57582;-34.876;138.628;2023-07-20T08:46:48;3.80;2.33;0.97
70197;PMS5003;57582;-34.876;138.628;2023-07-20T08:49:48;4.50;1.87;0.20
70197;PMS5003;57582;-34.876;138.628;2023-07-20T08:52:48;3.27;2.07;0.70
70197;PMS5003;57582;-34.876;138.628;2023-07-20T08:55:49;4.47;3.53;0.90
70197;PMS5003;57582;-34.876;138.628;2023-07-20T08:58:47;3.80;2.73;0.10
70197;PMS5003;57582;-34.876;138.628;2023-07-20T09:01:48;4.13;2.37;1.03
70197;PMS5003;57582;-34.876;138.628;2023-07-20T09:04:47;8.40;2.07;0.00
70197;PMS5003;57582;-34.876;138.628;2023-07-20T09:07:47;8.03;5.83;0.80
70197;PMS5003;57582;-34.876;138.628;2023-07-20T09:10:47;5.47;4.43;1.63
70197;PMS5003;57582;-34.876;138.628;2023-07-20T09:13:47;3.97;2.50;0.40
70197;PMS5003;57582;-34.876;138.628;2023-07-20T09:16:48;5.13;2.43;0.70
70197;PMS5003;57582;-34.876;138.628;2023-07-20T09:19:47;3.67;2.90;1.00
70197;PMS5003;57582;-34.876;138.628;2023-07-20T09:22:47;15.03;8.93;3.07
70197;PMS5003;57582;-34.876;138.628;2023-07-20T09:25:48;3.07;2.57;0.93
70197;PMS5003;57582;-34.876;138.628;2023-07-20T09:28:50;6.00;5.07;2.10
70197;PMS5003;57582;-34.876;138.628;2023-07-20T09:32:03;6.13;4.40;1.70
70197;PMS5003;57582;-34.876;138.628;2023-07-20T09:34:49;12.50;9.70;3.43
70197;PMS5003;57582;-34.876;138.628;2023-07-20T09:37:50;6.80;5.40;3.03
70197;PMS5003;57582;-34.876;138.628;2023-07-20T09:40:48;8.37;7.17;3.07
70197;PMS5003;57582;-34.876;138.628;2023-07-20T09:43:47;6.93;3.10;1.37
70197;PMS5003;57582;-34.876;138.628;2023-07-20T09:46:48;6.67;2.30;0.60
70197;PMS5003;57582;-34.876;138.628;2023-07-20T09:49:47;3.03;2.13;0.67
70197;PMS5003;57582;-34.876;138.628;2023-07-20T09:52:47;2.23;1.33;0.93
70197;PMS5003;57582;-34.876;138.628;2023-07-20T09:55:48;3.33;2.83;1.03
70197;PMS5003;57582;-34.876;138.628;2023-07-20T09:58:48;3.60;2.30;0.73
70197;PMS5003;57582;-34.876;138.628;2023-07-20T10:01:48;5.63;3.47;1.73
70197;PMS5003;57582;-34.876;138.628;2023-07-20T10:04:50;3.43;2.67;1.13
70197;PMS5003;57582;-34.876;138.628;2023-07-20T10:07:49;4.70;2.17;0.50
70197;PMS5003;57582;-34.876;138.628;2023-07-20T10:10:48;1.63;1.23;0.50
70197;PMS5003;57582;-34.876;138.628;2023-07-20T10:13:49;5.57;2.90;1.20
70197;PMS5003;57582;-34.876;138.628;2023-07-20T10:16:50;2.47;2.03;0.87
70197;PMS5003;57582;-34.876;138.628;2023-07-20T10:19:50;2.47;1.60;0.77
70197;PMS5003;57582;-34.876;138.628;2023-07-20T10:22:48;1.80;1.50;0.20
70197;PMS5003;57582;-34.876;138.628;2023-07-20T10:25:48;3.53;1.40;0.23
70197;PMS5003;57582;-34.876;138.628;2023-07-20T10:28:47;3.27;2.30;1.40
70197;PMS5003;57582;-34.876;138.628;2023-07-20T10:31:47;1.97;0.80;0.13
70197;PMS5003;57582;-34.876;138.628;2023-07-20T10:34:52;0.47;0.10;0.00
70197;PMS5003;57582;-34.876;138.628;2023-07-20T10:37:49;5.17;3.50;0.33
70197;PMS5003;57582;-34.876;138.628;2023-07-20T10:40:55;2.23;1.73;0.00
70197;PMS5003;57582;-34.876;138.628;2023-07-20T10:43:48;2.23;2.23;1.13
70197;PMS5003;57582;-34.876;138.628;2023-07-20T10:46:47;3.17;2.20;0.90
70197;PMS5003;57582;-34.876;138.628;2023-07-20T10:50:03;4.70;3.30;2.00
70197;PMS5003;57582;-34.876;138.628;2023-07-20T10:53:05;4.70;3.63;1.60
70197;PMS5003;57582;-34.876;138.628;2023-07-20T10:55:47;3.17;2.13;0.63
70197;PMS5003;57582;-34.876;138.628;2023-07-20T10:58:47;1.63;1.00;0.20
70197;PMS5003;57582;-34.876;138.628;2023-07-20T11:01:48;2.07;1.40;0.27
70197;PMS5003;57582;-34.876;138.628;2023-07-20T11:04:48;3.73;2.73;1.67
70197;PMS5003;57582;-34.876;138.628;2023-07-20T11:07:47;3.10;2.00;0.70
70197;PMS5003;57582;-34.876;138.628;2023-07-20T11:11:23;1.00;0.90;0.00
70197;PMS5003;57582;-34.876;138.628;2023-07-20T11:14:07;2.73;2.03;0.00
70197;PMS5003;57582;-34.876;138.628;2023-07-20T11:16:49;3.93;1.77;0.03
70197;PMS5003;57582;-34.876;138.628;2023-07-20T11:19:48;4.03;2.53;0.33
70197;PMS5003;57582;-34.876;138.628;2023-07-20T11:22:48;0.80;0.80;0.00
70197;PMS5003;57582;-34.876;138.628;2023-07-20T11:25:48;3.70;3.00;1.03
70197;PMS5003;57582;-34.876;138.628;2023-07-20T11:28:51;1.63;0.80;0.20
70197;PMS5003;57582;-34.876;138.628;2023-07-20T11:31:47;2.03;1.27;0.30
70197;PMS5003;57582;-34.876;138.628;2023-07-20T11:34:48;2.33;0.83;0.00
70197;PMS5003;57582;-34.876;138.628;2023-07-20T11:37:47;4.47;1.90;0.00
70197;PMS5003;57582;-34.876;138.628;2023-07-20T11:40:47;3.10;1.53;0.27
70197;PMS5003;57582;-34.876;138.628;2023-07-20T11:43:47;5.13;2.07;0.00
70197;PMS5003;57582;-34.876;138.628;2023-07-20T11:46:47;1.33;1.30;0.37
70197;PMS5003;57582;-34.876;138.628;2023-07-20T11:49:47;0.73;0.43;0.00
70197;PMS5003;57582;-34.876;138.628;2023-07-20T11:52:47;1.40;1.40;0.00
70197;PMS5003;57582;-34.876;138.628;2023-07-20T11:55:47;1.80;1.10;0.20
70197;PMS5003;57582;-34.876;138.628;2023-07-20T11:58:47;2.67;0.60;0.10
70197;PMS5003;57582;-34.876;138.628;2023-07-20T12:01:48;3.47;1.57;0.33
70197;PMS5003;57582;-34.876;138.628;2023-07-20T12:04:48;3.00;1.33;0.60
70197;PMS5003;57582;-34.876;138.628;2023-07-20T12:07:47;1.97;1.40;0.00
70197;PMS5003;57582;-34.876;138.628;2023-07-20T12:10:49;2.93;1.93;0.47
70197;PMS5003;57582;-34.876;138.628;2023-07-20T12:13:47;1.73;0.73;0.00
70197;PMS5003;57582;-34.876;138.628;2023-07-20T12:16:53;2.27;0.77;0.03
70197;PMS5003;57582;-34.876;138.628;2023-07-20T12:19:47;1.60;0.37;0.00
70197;PMS5003;57582;-34.876;138.628;2023-07-20T12:22:47;1.50;1.13;0.90
70197;PMS5003;57582;-34.876;138.628;2023-07-20T12:25:47;2.97;1.53;0.07
70197;PMS5003;57582;-34.876;138.628;2023-07-20T12:28:47;3.60;1.80;0.30
70197;PMS5003;57582;-34.876;138.628;2023-07-20T12:31:47;2.93;1.50;0.00
70197;PMS5003;57582;-34.876;138.628;2023-07-20T12:34:47;2.43;1.67;0.33
70197;PMS5003;57582;-34.876;138.628;2023-07-20T12:37:47;3.23;1.80;0.50
70197;PMS5003;57582;-34.876;138.628;2023-07-20T12:40:48;1.47;0.97;0.23
70197;PMS5003;57582;-34.876;138.628;2023-07-20T12:43:47;2.60;1.00;0.57
70197;PMS5003;57582;-34.876;138.628;2023-07-20T12:46:48;3.40;1.17;0.30
70197;PMS5003;57582;-34.876;138.628;2023-07-20T12:49:47;2.27;0.80;0.07
70197;PMS5003;57582;-34.876;138.628;2023-07-20T12:52:47;5.80;1.40;0.50
70197;PMS5003;57582;-34.876;138.628;2023-07-20T12:55:47;4.03;1.50;0.00
70197;PMS5003;57582;-34.876;138.628;2023-07-20T12:58:47;4.33;1.50;0.00
70197;PMS5003;57582;-34.876;138.628;2023-07-20T13:01:47;2.23;0.57;0.07
70197;PMS5003;57582;-34.876;138.628;2023-07-20T13:04:47;1.37;0.37;0.00
70197;PMS5003;57582;-34.876;138.628;2023-07-20T13:07:47;0.57;0.57;0.00
70197;PMS5003;57582;-34.876;138.628;2023-07-20T13:10:48;1.80;1.07;0.00
70197;PMS5003;57582;-34.876;138.628;2023-07-20T13:13:48;3.83;2.40;0.00
70197;PMS5003;57582;-34.876;138.628;2023-07-20T13:16:47;2.23;1.60;0.17
70197;PMS5003;57582;-34.876;138.628;2023-07-20T13:20:02;1.67;0.90;0.47
70197;PMS5003;57582;-34.876;138.628;2023-07-20T13:21:45;5.03;0.73;0.00
70197;PMS5003;57582;-34.876;138.628;2023-07-20T13:24:46;1.80;0.90;0.00
70197;PMS5003;57582;-34.876;138.628;2023-07-20T13:27:45;3.20;1.93;0.20
70197;PMS5003;57582;-34.876;138.628;2023-07-20T13:30:45;5.07;2.47;0.57
70197;PMS5003;57582;-34.876;138.628;2023-07-20T13:33:45;2.50;1.00;0.23
70197;PMS5003;57582;-34.876;138.628;2023-07-20T13:36:45;0.60;0.30;0.00
70197;PMS5003;57582;-34.876;138.628;2023-07-20T13:39:45;2.70;0.90;0.20
70197;PMS5003;57582;-34.876;138.628;2023-07-20T13:42:45;1.33;1.00;0.57
70197;PMS5003;57582;-34.876;138.628;2023-07-20T13:45:45;0.67;0.43;0.00
70197;PMS5003;57582;-34.876;138.628;2023-07-20T13:48:45;2.93;1.03;0.00
70197;PMS5003;57582;-34.876;138.628;2023-07-20T13:51:45;1.07;0.90;0.00
70197;PMS5003;57582;-34.876;138.628;2023-07-20T13:54:45;3.23;1.47;0.40
70197;PMS5003;57582;-34.876;138.628;2023-07-20T13:57:45;1.90;1.20;0.17
70197;PMS5003;57582;-34.876;138.628;2023-07-20T14:00:45;2.00;1.27;0.37
70197;PMS5003;57582;-34.876;138.628;2023-07-20T14:03:45;2.20;1.57;0.00
70197;PMS5003;57582;-34.876;138.628;2023-07-20T14:06:45;3.10;1.67;0.00
70197;PMS5003;57582;-34.876;138.628;2023-07-20T14:09:45;1.17;0.93;0.13
70197;PMS5003;57582;-34.876;138.628;2023-07-20T14:12:45;3.33;2.77;0.63
70197;PMS5003;57582;-34.876;138.628;2023-07-20T14:15:45;2.47;1.57;0.60
70197;PMS5003;57582;-34.876;138.628;2023-07-20T14:18:45;4.53;1.87;0.53
70197;PMS5003;57582;-34.876;138.628;2023-07-20T14:21:45;3.43;3.23;1.00
70197;PMS5003;57582;-34.876;138.628;2023-07-20T14:24:45;7.47;3.30;1.97
70197;PMS5003;57582;-34.876;138.628;2023-07-20T14:27:45;6.23;4.33;2.20
70197;PMS5003;57582;-34.876;138.628;2023-07-20T14:30:45;7.23;4.87;3.00
70197;PMS5003;57582;-34.876;138.628;2023-07-20T14:33:45;6.07;3.87;2.20
70197;PMS5003;57582;-34.876;138.628;2023-07-20T14:36:45;8.20;5.47;2.30
70197;PMS5003;57582;-34.876;138.628;2023-07-20T14:39:45;8.83;7.17;4.77
70197;PMS5003;57582;-34.876;138.628;2023-07-20T14:42:45;9.30;8.97;5.37
70197;PMS5003;57582;-34.876;138.628;2023-07-20T14:45:45;11.17;7.97;4.90
70197;PMS5003;57582;-34.876;138.628;2023-07-20T14:48:45;9.10;5.83;2.50
70197;PMS5003;57582;-34.876;138.628;2023-07-20T14:51:45;19.87;18.07;12.87
70197;PMS5003;57582;-34.876;138.628;2023-07-20T14:54:45;15.93;14.77;10.43
70197;PMS5003;57582;-34.876;138.628;2023-07-20T14:57:45;18.53;15.57;9.20
70197;PMS5003;57582;-34.876;138.628;2023-07-20T15:00:45;13.47;10.97;6.40
70197;PMS5003;57582;-34.876;138.628;2023-07-20T15:03:45;10.37;9.83;5.17
70197;PMS5003;57582;-34.876;138.628;2023-07-20T15:06:45;11.77;9.57;4.77
70197;PMS5003;57582;-34.876;138.628;2023-07-20T15:09:45;9.90;7.90;4.43
70197;PMS5003;57582;-34.876;138.628;2023-07-20T15:12:45;7.00;7.00;3.43
70197;PMS5003;57582;-34.876;138.628;2023-07-20T15:15:45;8.67;7.80;4.47
70197;PMS5003;57582;-34.876;138.628;2023-07-20T15:18:45;12.70;12.07;7.30
70197;PMS5003;57582;-34.876;138.628;2023-07-20T15:21:45;13.63;12.30;7.77
70197;PMS5003;57582;-34.876;138.628;2023-07-20T15:24:45;12.87;10.80;7.27
70197;PMS5003;57582;-34.876;138.628;2023-07-20T15:27:45;13.43;9.67;5.57
70197;PMS5003;57582;-34.876;138.628;2023-07-20T15:30:45;9.13;7.83;3.90
70197;PMS5003;57582;-34.876;138.628;2023-07-20T15:33:45;5.13;2.80;0.07
70197;PMS5003;57582;-34.876;138.628;2023-07-20T15:36:45;12.47;9.20;4.50
70197;PMS5003;57582;-34.876;138.628;2023-07-20T15:39:48;9.23;7.20;4.33
70197;PMS5003;57582;-34.876;138.628;2023-07-20T15:42:45;9.07;7.73;4.87
70197;PMS5003;57582;-34.876;138.628;2023-07-20T15:45:47;11.40;10.00;6.07
70197;PMS5003;57582;-34.876;138.628;2023-07-20T15:48:46;7.40;6.97;4.10
70197;PMS5003;57582;-34.876;138.628;2023-07-20T15:51:46;9.23;7.50;3.87
70197;PMS5003;57582;-34.876;138.628;2023-07-20T15:54:45;7.40;5.77;3.00
70197;PMS5003;57582;-34.876;138.628;2023-07-20T15:57:45;9.57;7.47;3.07
70197;PMS5003;57582;-34.876;138.628;2023-07-20T16:00:45;7.33;6.40;3.57
70197;PMS5003;57582;-34.876;138.628;2023-07-20T16:03:45;5.13;5.13;2.03
70197;PMS5003;57582;-34.876;138.628;2023-07-20T16:06:45;7.50;6.97;3.50
70197;PMS5003;57582;-34.876;138.628;2023-07-20T16:09:45;7.53;5.87;2.97
70197;PMS5003;57582;-34.876;138.628;2023-07-20T16:12:45;8.60;6.70;3.37
70197;PMS5003;57582;-34.876;138.628;2023-07-20T16:15:45;7.43;6.03;2.73
70197;PMS5003;57582;-34.876;138.628;2023-07-20T16:18:45;6.83;5.57;4.37
70197;PMS5003;57582;-34.876;138.628;2023-07-20T16:21:45;8.60;8.47;4.37
70197;PMS5003;57582;-34.876;138.628;2023-07-20T16:24:45;6.20;4.80;2.80
70197;PMS5003;57582;-34.876;138.628;2023-07-20T16:27:45;7.73;6.37;3.50
70197;PMS5003;57582;-34.876;138.628;2023-07-20T16:30:45;5.67;4.90;2.63
70197;PMS5003;57582;-34.876;138.628;2023-07-20T16:33:46;7.80;6.23;3.23
70197;PMS5003;57582;-34.876;138.628;2023-07-20T16:36:45;7.33;5.47;2.57
70197;PMS5003;57582;-34.876;138.628;2023-07-20T16:39:45;4.53;3.57;0.87
70197;PMS5003;57582;-34.876;138.628;2023-07-20T16:42:45;10.53;8.07;3.70
70197;PMS5003;57582;-34.876;138.628;2023-07-20T16:45:45;9.33;6.57;4.03
70197;PMS5003;57582;-34.876;138.628;2023-07-20T16:48:45;7.00;5.33;3.43
70197;PMS5003;57582;-34.876;138.628;2023-07-20T16:51:45;9.17;7.40;3.13